Terminal Aerodrome Forecast
Issued by NWS Tampa Bay Area, FL

Home | Current Version | Previous Version | Text Only | Print | Product List | Glossary On
Versions: 1 2 3 4 5 6 7 8 9 10 11 12 13 14 15 16 17 18 19 20 21 22 23 24 25
945
FTUS42 KTBW 081456 AAA
TAFTPA
TAF AMD
KTPA 081456Z 0815/0912 22010KT P6SM SCT040 SCT250
     FM081800 25013G19KT P6SM SCT035 SCT250
     FM090000 27018G25KT P6SM SCT050 SCT250=

USA.gov is the U.S. government's official web portal to all federal, state and local government web resources and services.